createdAt,value
2018-12-25T00:01:17.645Z,102647.17
2018-12-25T00:04:06.489Z,102643.37
2018-12-25T00:06:55.329Z,102642.58
2018-12-25T00:09:44.160Z,102635.46
2018-12-25T00:12:33.006Z,102566.19
2018-12-25T00:15:21.850Z,102636.05
2018-12-25T00:18:10.743Z,102635.52
2018-12-25T00:20:59.559Z,102632.23
2018-12-25T00:23:48.401Z,102635.26
2018-12-25T00:26:37.330Z,102636.39
2018-12-25T00:29:26.169Z,102595.22
2018-12-25T00:32:15.113Z,102646.53
2018-12-25T00:35:04.000Z,102646.31
2018-12-25T00:37:45.854Z,102646.89
2018-12-25T00:40:34.651Z,102640.34
2018-12-25T00:43:23.506Z,102623.25
2018-12-25T00:46:12.338Z,102573.42
2018-12-25T00:49:01.213Z,102540.22
2018-12-25T00:51:50.042Z,102597.23
2018-12-25T00:54:38.927Z,102529.88
2018-12-25T00:57:27.708Z,102604.61
2018-12-25T01:00:16.637Z,102602.41
2018-12-25T01:03:05.466Z,102607.34
2018-12-25T01:05:54.302Z,102613.84
2018-12-25T01:08:43.184Z,102611.66
2018-12-25T01:11:32.006Z,102622.30
2018-12-25T01:14:20.859Z,102630.49
2018-12-25T01:17:09.668Z,102634.59
2018-12-25T01:19:58.519Z,102638.69
2018-12-25T01:22:47.317Z,102613.88
2018-12-25T01:25:36.236Z,102631.08
2018-12-25T01:28:25.216Z,102598.99
2018-12-25T01:31:07.278Z,102637.13
2018-12-25T01:33:56.091Z,102608.34
2018-12-25T01:36:44.933Z,102648.11
2018-12-25T01:39:14.414Z,102616.05
2018-12-25T01:42:03.291Z,102650.34
2018-12-25T01:44:52.139Z,102652.84
2018-12-25T01:47:40.965Z,102651.77
2018-12-25T01:50:29.874Z,102655.60
2018-12-25T01:53:18.688Z,102661.92
2018-12-25T01:56:07.586Z,102658.31
2018-12-25T01:58:56.448Z,102661.42
2018-12-25T02:01:45.234Z,102667.47
2018-12-25T02:04:25.054Z,102588.19
2018-12-25T02:07:13.851Z,102656.19
2018-12-25T02:10:02.707Z,102659.99
2018-12-25T02:12:51.575Z,102654.53
2018-12-25T02:15:40.414Z,102659.47
2018-12-25T02:18:29.273Z,102655.89
2018-12-25T02:21:18.100Z,102661.71
2018-12-25T02:23:47.593Z,102658.19
2018-12-25T02:26:36.390Z,102668.05
2018-12-25T02:29:25.243Z,102616.40
2018-12-25T02:32:07.037Z,102584.95
2018-12-25T02:34:48.315Z,102667.27
2018-12-25T02:37:37.104Z,102661.50
2018-12-25T02:40:25.972Z,102665.89
2018-12-25T02:43:14.796Z,102665.89
2018-12-25T02:46:03.693Z,102664.52
2018-12-25T02:48:52.492Z,102659.34
2018-12-25T02:51:41.331Z,102660.20
2018-12-25T02:54:30.144Z,102655.54
2018-12-25T02:57:18.987Z,102662.66
2018-12-25T03:00:08.455Z,102665.39
2018-12-25T03:02:57.295Z,102656.96
2018-12-25T03:05:46.136Z,102653.16
2018-12-25T03:08:34.942Z,102660.28
2018-12-25T03:11:23.797Z,102664.11
2018-12-25T03:13:53.243Z,102660.87
2018-12-25T03:16:42.092Z,102651.89
2018-12-25T03:19:30.955Z,102645.11
2018-12-25T03:22:19.862Z,102620.00
2018-12-25T03:25:08.690Z,102645.42
2018-12-25T03:27:57.536Z,102641.03
2018-12-25T03:30:46.376Z,102639.66
2018-12-25T03:33:26.242Z,102644.61
2018-12-25T03:36:15.108Z,102636.93
2018-12-25T03:39:24.638Z,102635.06
2018-12-25T03:42:13.539Z,102630.96
2018-12-25T03:45:02.335Z,102601.42
2018-12-25T03:47:51.171Z,102627.94
2018-12-25T03:50:39.969Z,102620.02
2018-12-25T03:53:28.807Z,102616.19
2018-12-25T03:56:17.602Z,102618.08
2018-12-25T03:59:06.452Z,102590.80
2018-12-25T04:01:55.262Z,102616.42
2018-12-25T04:04:44.169Z,102619.16
2018-12-25T04:07:32.973Z,102615.34
2018-12-25T04:10:21.784Z,102622.45
2018-12-25T04:13:10.584Z,102615.32
2018-12-25T04:15:59.456Z,102616.40
2018-12-25T04:18:48.271Z,102560.89
2018-12-25T04:21:37.100Z,102616.13
2018-12-25T04:24:25.898Z,102609.59
2018-12-25T04:27:14.743Z,102607.98
2018-12-25T04:30:03.704Z,102607.98
2018-12-25T04:32:52.541Z,102608.51
2018-12-25T04:35:34.535Z,102605.77
2018-12-25T04:38:23.405Z,102609.64
2018-12-25T04:41:12.236Z,102610.16
2018-12-25T04:44:01.030Z,102607.14
2018-12-25T04:46:49.861Z,102614.55
2018-12-25T04:49:38.674Z,102614.55
2018-12-25T04:52:27.504Z,102620.87
2018-12-25T04:55:08.975Z,102614.81
2018-12-25T04:57:57.809Z,102623.55
2018-12-25T05:00:46.652Z,102620.52
2018-12-25T05:03:35.500Z,102614.77
2018-12-25T05:06:24.298Z,102625.18
2018-12-25T05:09:13.139Z,102630.36
2018-12-25T05:12:01.999Z,102617.21
2018-12-25T05:14:51.058Z,102613.11
2018-12-25T05:17:39.921Z,102616.92
2018-12-25T05:20:28.724Z,102617.77
2018-12-25T05:23:17.565Z,102620.23
2018-12-25T05:26:06.407Z,102556.23
2018-12-25T05:28:55.307Z,102608.51
2018-12-25T05:31:44.140Z,102604.41
2018-12-25T05:34:32.974Z,102602.75
2018-12-25T05:37:21.769Z,102605.48
2018-12-25T05:40:03.935Z,102609.85
2018-12-25T05:42:52.739Z,102613.69
2018-12-25T05:45:41.586Z,102608.51
2018-12-25T05:48:30.432Z,102615.92
2018-12-25T05:51:19.300Z,102618.66
2018-12-25T05:54:08.222Z,102623.02
2018-12-25T05:56:57.053Z,102612.61
2018-12-25T05:59:45.891Z,102622.18
2018-12-25T06:02:34.732Z,102609.59
2018-12-25T06:05:23.524Z,102618.92
2018-12-25T06:08:12.377Z,102624.13
2018-12-25T06:11:01.226Z,102620.31
2018-12-25T06:13:50.082Z,102619.52
2018-12-25T06:16:38.901Z,102623.91
2018-12-25T06:19:27.712Z,102625.85
2018-12-25T06:22:16.583Z,102622.02
2018-12-25T06:25:05.661Z,102623.39
2018-12-25T06:27:54.506Z,102622.25
2018-12-25T06:30:43.332Z,102633.25
2018-12-25T06:33:32.169Z,102624.20
2018-12-25T06:36:20.989Z,102626.14
2018-12-25T06:39:10.052Z,102628.35
2018-12-25T06:41:58.897Z,102625.09
2018-12-25T06:44:47.715Z,102615.81
2018-12-25T06:47:36.559Z,102621.28
2018-12-25T06:50:25.417Z,102533.28
2018-12-25T06:53:14.265Z,102608.08
2018-12-25T06:56:03.941Z,102619.41
2018-12-25T06:58:52.793Z,102609.84
2018-12-25T07:01:41.601Z,102606.02
2018-12-25T07:04:30.451Z,102607.39
2018-12-25T07:07:19.294Z,102606.02
2018-12-25T07:10:08.141Z,102606.31
2018-12-25T07:12:56.940Z,102606.31
2018-12-25T07:15:45.814Z,102610.13
2018-12-25T07:18:34.621Z,102608.47
2018-12-25T07:21:23.449Z,102598.80
2018-12-25T07:24:12.261Z,102597.24
2018-12-25T07:27:01.133Z,102602.14
2018-12-25T07:29:42.416Z,102608.12
2018-12-25T07:32:31.253Z,102607.61
2018-12-25T07:35:20.098Z,102594.22
2018-12-25T07:38:08.933Z,102598.90
2018-12-25T07:40:57.788Z,102600.00
2018-12-25T07:43:39.913Z,102519.22
2018-12-25T07:46:28.762Z,102561.73
2018-12-25T07:49:17.576Z,102595.16
2018-12-25T07:52:06.384Z,102600.91
2018-12-25T07:54:55.190Z,102599.55
2018-12-25T07:57:44.022Z,102604.44
2018-12-25T08:00:32.870Z,102524.33
2018-12-25T08:03:21.668Z,102609.63
2018-12-25T08:06:10.496Z,102607.97
2018-12-25T08:08:59.293Z,102608.78
2018-12-25T08:11:48.140Z,102609.63
2018-12-25T08:14:36.924Z,102616.46
2018-12-25T08:17:25.424Z,102613.45
2018-12-25T08:20:14.295Z,102603.65
2018-12-25T08:23:15.237Z,102600.36
2018-12-25T08:25:53.715Z,102597.62
2018-12-25T08:28:42.531Z,102598.47
2018-12-25T08:31:31.380Z,102602.30
2018-12-25T08:34:13.467Z,102600.93
2018-12-25T08:37:02.306Z,102578.89
2018-12-25T08:39:51.189Z,102601.99
2018-12-25T08:42:39.993Z,102592.95
2018-12-25T08:45:28.963Z,102600.57
2018-12-25T08:47:58.552Z,102611.28
2018-12-25T08:50:47.070Z,102616.24
2018-12-25T08:53:28.690Z,102617.39
2018-12-25T08:56:17.531Z,102624.02
2018-12-25T08:59:06.432Z,102601.99
2018-12-25T09:01:55.271Z,102629.63
2018-12-25T09:04:44.073Z,102631.34
2018-12-25T09:07:32.977Z,102628.39
2018-12-25T09:10:21.837Z,102631.20
2018-12-25T09:13:10.642Z,102629.60
2018-12-25T09:15:59.485Z,102615.39
2018-12-25T09:18:48.293Z,102628.86
2018-12-25T09:21:37.231Z,102620.70
2018-12-25T09:24:06.683Z,102621.33
2018-12-25T09:26:55.602Z,102618.36
2018-12-25T09:29:44.465Z,102624.42
2018-12-25T09:32:33.331Z,102626.41
2018-12-25T09:35:22.239Z,102636.63
2018-12-25T09:38:11.082Z,102639.70
2018-12-25T09:40:52.856Z,102564.14
2018-12-25T09:43:41.761Z,102641.80
2018-12-25T09:46:30.607Z,102636.94
2018-12-25T09:49:19.788Z,102640.86
2018-12-25T09:52:08.643Z,102638.45
2018-12-25T09:54:57.449Z,102633.54
2018-12-25T09:57:46.280Z,102644.60
2018-12-25T10:00:35.160Z,102634.25
2018-12-25T10:03:23.984Z,102629.66
2018-12-25T10:06:12.829Z,102630.80
2018-12-25T10:08:42.350Z,102632.48
2018-12-25T10:11:31.147Z,102629.54
2018-12-25T10:14:19.993Z,102616.95
2018-12-25T10:17:08.790Z,102616.47
2018-12-25T10:19:57.723Z,102612.39
2018-12-25T10:22:37.495Z,102616.55
2018-12-25T10:25:26.335Z,102610.59
2018-12-25T10:28:15.172Z,102612.53
2018-12-25T10:31:04.022Z,102606.26
2018-12-25T10:33:52.830Z,102607.95
2018-12-25T10:36:41.695Z,102611.00
2018-12-25T10:39:30.574Z,102612.67
2018-12-25T10:42:19.393Z,102608.59
2018-12-25T10:45:08.318Z,102604.53
2018-12-25T10:47:57.144Z,102610.33
2018-12-25T10:50:45.987Z,102608.41
2018-12-25T10:53:34.838Z,102606.53
2018-12-25T10:56:23.791Z,102608.76
2018-12-25T10:59:12.694Z,102533.07
2018-12-25T11:02:01.590Z,102609.06
2018-12-25T11:04:50.447Z,102610.98
2018-12-25T11:07:39.383Z,102610.73
2018-12-25T11:10:28.200Z,102613.20
2018-12-25T11:13:17.120Z,102617.06
2018-12-25T11:16:06.006Z,102624.73
2018-12-25T11:18:54.817Z,102622.55
2018-12-25T11:21:36.629Z,102608.56
2018-12-25T11:24:25.418Z,102603.34
2018-12-25T11:27:14.289Z,102609.13
2018-12-25T11:30:03.094Z,102609.41
2018-12-25T11:32:51.976Z,102616.86
2018-12-25T11:35:40.808Z,102603.14
2018-12-25T11:38:29.631Z,102574.50
2018-12-25T11:41:18.451Z,102600.68
2018-12-25T11:44:07.298Z,102595.45
2018-12-25T11:46:56.099Z,102593.81
2018-12-25T11:49:44.931Z,102591.08
2018-12-25T11:52:33.774Z,102590.81
2018-12-25T11:55:03.249Z,102591.92
2018-12-25T11:57:52.104Z,102583.13
2018-12-25T12:00:41.020Z,102575.45
2018-12-25T12:03:29.938Z,102493.17
2018-12-25T12:06:18.823Z,102563.61
2018-12-25T12:09:08.019Z,102487.14
2018-12-25T12:11:56.885Z,102556.75
2018-12-25T12:14:45.728Z,102560.04
2018-12-25T12:17:34.651Z,102563.34
2018-12-25T12:20:23.477Z,102565.81
2018-12-25T12:23:12.352Z,102512.14
2018-12-25T12:26:01.310Z,102528.40
2018-12-25T12:28:50.141Z,102572.67
2018-12-25T12:31:31.884Z,102569.93
2018-12-25T12:34:20.745Z,102577.08
2018-12-25T12:37:09.647Z,102579.83
2018-12-25T12:39:58.492Z,102581.48
2018-12-25T12:42:47.299Z,102582.04
2018-12-25T12:45:36.129Z,102577.62
2018-12-25T12:48:24.980Z,102576.53
2018-12-25T12:51:13.813Z,102582.59
2018-12-25T12:54:02.748Z,102577.36
2018-12-25T12:56:51.577Z,102583.69
2018-12-25T12:59:40.400Z,102581.50
2018-12-25T13:02:29.216Z,102562.52
2018-12-25T13:05:18.067Z,102567.20
2018-12-25T13:08:06.930Z,102568.87
2018-12-25T13:10:55.929Z,102565.83
2018-12-25T13:13:44.750Z,102568.87
2018-12-25T13:16:14.263Z,102563.08
2018-12-25T13:19:03.203Z,102571.07
2018-12-25T13:21:52.051Z,102574.09
2018-12-25T13:24:33.441Z,102566.95
2018-12-25T13:27:14.802Z,102564.47
2018-12-25T13:33:18.872Z,102558.12
2018-12-25T13:36:07.697Z,102583.72
2018-12-25T13:38:56.550Z,102582.07
2018-12-25T13:41:45.464Z,102496.25
2018-12-25T13:44:34.320Z,102585.38
2018-12-25T13:47:23.263Z,102584.53
2018-12-25T13:50:12.106Z,102576.02
2018-12-25T13:53:02.923Z,102573.83
2018-12-25T13:55:51.539Z,102569.67
2018-12-25T13:58:40.392Z,102567.19
2018-12-25T14:01:29.220Z,102571.33
2018-12-25T14:04:18.059Z,102500.38
2018-12-25T14:07:06.959Z,102571.33
2018-12-25T14:09:55.772Z,102570.78
2018-12-25T14:12:44.603Z,102526.77
2018-12-25T14:15:33.414Z,102577.36
2018-12-25T14:18:22.272Z,102541.04
2018-12-25T14:21:11.185Z,102572.69
2018-12-25T14:24:00.037Z,102531.69
2018-12-25T14:26:48.899Z,102570.48
2018-12-25T14:29:37.788Z,102565.80
2018-12-25T14:32:26.613Z,102571.84
2018-12-25T14:35:15.435Z,102570.18
2018-12-25T14:38:04.337Z,102563.32
2018-12-25T14:40:53.132Z,102565.52
2018-12-25T14:43:41.993Z,102578.16
2018-12-25T14:46:30.800Z,102587.75
2018-12-25T14:49:00.318Z,102584.17
2018-12-25T14:51:49.124Z,102583.34
2018-12-25T14:54:37.988Z,102577.58
2018-12-25T14:57:26.802Z,102569.30
2018-12-25T15:00:15.717Z,102568.47
2018-12-25T15:02:57.200Z,102576.42
2018-12-25T15:05:46.016Z,102580.81
2018-12-25T15:08:42.224Z,102585.19
2018-12-25T15:11:31.046Z,102592.32
2018-12-25T15:14:19.911Z,102589.84
2018-12-25T15:17:08.721Z,102585.97
2018-12-25T15:19:57.567Z,102585.42
2018-12-25T15:22:46.361Z,102584.86
2018-12-25T15:25:35.299Z,102591.17
2018-12-25T15:28:24.098Z,102559.53
2018-12-25T15:31:13.081Z,102584.84
2018-12-25T15:34:01.853Z,102583.19
2018-12-25T15:36:50.730Z,102576.33
2018-12-25T15:39:39.530Z,102588.94
2018-12-25T15:42:28.448Z,102590.31
2018-12-25T15:45:17.259Z,102591.69
2018-12-25T15:48:06.099Z,102561.38
2018-12-25T15:50:54.921Z,102593.88
2018-12-25T15:53:43.762Z,102592.22
2018-12-25T15:56:32.605Z,102593.59
2018-12-25T15:59:21.421Z,102592.22
2018-12-25T16:02:10.266Z,102594.97
2018-12-25T16:04:51.977Z,102602.65
2018-12-25T16:07:21.537Z,102552.25
2018-12-25T16:09:51.006Z,102598.78
2018-12-25T16:12:39.845Z,102594.12
2018-12-25T16:15:28.670Z,102589.45
2018-12-25T16:18:17.506Z,102594.66
2018-12-25T16:21:06.344Z,102512.31
2018-12-25T16:23:55.214Z,102581.20
2018-12-25T16:26:44.067Z,102589.97
2018-12-25T16:29:32.913Z,102583.61
2018-12-25T16:32:21.735Z,102583.86
2018-12-25T16:35:10.649Z,102578.91
2018-12-25T16:37:59.457Z,102576.70
2018-12-25T16:40:48.312Z,102583.53
2018-12-25T16:43:37.172Z,102584.62
2018-12-25T16:46:26.046Z,102520.95
2018-12-25T16:49:14.875Z,102579.66
2018-12-25T16:52:03.773Z,102593.63
2018-12-25T16:54:52.626Z,102588.43
2018-12-25T16:57:41.555Z,102591.70
2018-12-25T17:00:32.175Z,102604.05
2018-12-25T17:03:13.943Z,102604.61
2018-12-25T17:06:02.799Z,102605.70
2018-12-25T17:08:51.660Z,102604.89
2018-12-25T17:11:40.500Z,102603.23
2018-12-25T17:14:29.335Z,102607.07
2018-12-25T17:17:18.207Z,102605.17
2018-12-25T17:20:28.000Z,102598.84
2018-12-25T17:23:16.886Z,102594.73
2018-12-25T17:26:05.710Z,102596.09
2018-12-25T17:28:54.559Z,102597.47
2018-12-25T17:31:43.359Z,102596.91
2018-12-25T17:34:25.011Z,102602.92
2018-12-25T17:37:13.860Z,102607.54
2018-12-25T17:40:02.386Z,102604.77
2018-12-25T17:42:44.453Z,102603.11
2018-12-25T17:45:33.325Z,102605.01
2018-12-25T17:48:22.180Z,102591.22
2018-12-25T17:51:10.979Z,102602.23
2018-12-25T17:53:59.847Z,102602.47
2018-12-25T17:56:48.752Z,102603.28
2018-12-25T17:59:37.613Z,102598.89
2018-12-25T18:02:07.137Z,102599.38
2018-12-25T18:04:55.968Z,102602.65
2018-12-25T18:07:44.814Z,102600.71
2018-12-25T18:10:33.685Z,102600.16
2018-12-25T18:13:22.524Z,102598.22
2018-12-25T18:16:11.361Z,102607.53
2018-12-25T18:19:00.200Z,102605.59
2018-12-25T18:21:49.034Z,102603.09
2018-12-25T18:24:37.884Z,102544.92
2018-12-25T18:27:26.756Z,102604.98
2018-12-25T18:30:15.620Z,102602.25
2018-12-25T18:33:04.427Z,102597.29
2018-12-25T18:35:46.199Z,102601.67
2018-12-25T18:38:35.035Z,102601.64
2018-12-25T18:41:23.949Z,102602.97
2018-12-25T18:44:12.751Z,102533.22
2018-12-25T18:47:01.586Z,102602.13
2018-12-25T18:49:50.500Z,102594.42
2018-12-25T18:52:39.335Z,102591.96
2018-12-25T18:55:08.855Z,102584.22
2018-12-25T18:57:57.783Z,102596.03
2018-12-25T19:00:46.583Z,102592.44
2018-12-25T19:03:35.671Z,102588.00
2018-12-25T19:06:17.413Z,102585.22
2018-12-25T19:09:27.142Z,102587.34
2018-12-25T19:12:15.967Z,102583.77
2018-12-25T19:15:25.691Z,102581.54
2018-12-25T19:18:14.523Z,102495.78
2018-12-25T19:21:03.424Z,102585.55
2018-12-25T19:27:08.185Z,102579.97
2018-12-25T19:29:56.999Z,102575.53
2018-12-25T19:32:45.862Z,102578.26
2018-12-25T19:35:34.762Z,102585.63
2018-12-25T19:38:23.711Z,102577.64
2018-12-25T19:41:12.487Z,102574.56
2018-12-25T19:44:01.390Z,102581.34
2018-12-25T19:46:50.271Z,102578.55
2018-12-25T19:49:39.107Z,102575.72
2018-12-25T19:52:27.969Z,102568.30
2018-12-25T19:55:16.970Z,102576.45
2018-12-25T19:57:58.380Z,102576.91
2018-12-25T20:00:28.048Z,102564.98
2018-12-25T20:03:17.024Z,102587.44
2018-12-25T20:06:26.744Z,102584.92
2018-12-25T20:09:54.291Z,102581.56
2018-12-25T20:13:21.830Z,102574.35
2018-12-25T20:16:49.348Z,102571.77
2018-12-25T20:19:59.165Z,102563.38
2018-12-25T20:23:08.935Z,102566.20
2018-12-25T20:26:36.488Z,102561.61
2018-12-25T20:30:04.051Z,102475.02
2018-12-25T20:33:31.543Z,102557.37
2018-12-25T20:36:32.807Z,102574.90
2018-12-25T20:40:00.328Z,102577.72
2018-12-25T20:43:27.854Z,102575.05
2018-12-25T20:46:37.677Z,102480.73
2018-12-25T20:53:55.659Z,102571.83
2018-12-25T20:56:39.279Z,102510.80
2018-12-25T21:00:06.908Z,102569.97
2018-12-25T21:03:34.518Z,102565.96
2018-12-25T21:07:02.145Z,102565.43
2018-12-25T21:10:29.702Z,102570.08
2018-12-25T21:13:39.497Z,102537.48
2018-12-25T21:16:49.375Z,102576.16
2018-12-25T21:19:59.208Z,102569.70
2018-12-25T21:23:26.748Z,102571.09
2018-12-25T21:26:54.287Z,102577.97
2018-12-25T21:29:43.197Z,102575.90
2018-12-25T21:32:53.401Z,102541.25
2018-12-25T21:35:34.759Z,102564.81
2018-12-25T21:38:44.584Z,102487.20
2018-12-25T21:41:33.490Z,102561.72
2018-12-25T21:44:13.841Z,102561.27
2018-12-25T21:47:02.773Z,102565.98
2018-12-25T21:49:52.447Z,102573.50
2018-12-25T21:52:41.322Z,102566.57
2018-12-25T21:55:30.400Z,102563.17
2018-12-25T21:58:19.291Z,102556.75
2018-12-25T22:01:08.249Z,102507.51
2018-12-25T22:03:57.111Z,102546.45
2018-12-25T22:06:45.967Z,102552.06
2018-12-25T22:09:34.806Z,102538.02
2018-12-25T22:12:23.650Z,102542.56
2018-12-25T22:15:12.497Z,102542.43
2018-12-25T22:18:01.319Z,102530.92
2018-12-25T22:20:50.150Z,102513.63
2018-12-25T22:23:38.963Z,102563.28
2018-12-25T22:26:27.813Z,102565.09
2018-12-25T22:29:16.637Z,102487.26
2018-12-25T22:32:05.546Z,102543.66
2018-12-25T22:34:54.351Z,102546.84
2018-12-25T22:37:36.331Z,102533.41
2018-12-25T22:40:25.164Z,102528.95
2018-12-25T22:43:14.035Z,102538.10
2018-12-25T22:46:02.927Z,102533.42
2018-12-25T22:48:51.854Z,102491.31
2018-12-25T22:51:40.765Z,102523.47
2018-12-25T22:54:29.557Z,102523.92
2018-12-25T22:57:18.411Z,102520.31
2018-12-25T23:00:28.187Z,102518.05
2018-12-25T23:03:17.084Z,102520.16
2018-12-25T23:06:05.975Z,102516.81
2018-12-25T23:08:54.814Z,102517.56
2018-12-25T23:11:43.728Z,102424.03
2018-12-25T23:14:25.305Z,102468.25
2018-12-25T23:17:14.156Z,102517.67
2018-12-25T23:20:02.992Z,102517.58
2018-12-25T23:22:51.852Z,102522.95
2018-12-25T23:25:44.546Z,102529.05
2018-12-25T23:28:31.230Z,102483.48
2018-12-25T23:31:20.214Z,102527.03
2018-12-25T23:34:09.064Z,102511.70
2018-12-25T23:36:51.255Z,102507.02
2018-12-25T23:39:40.118Z,102511.55
2018-12-25T23:42:28.967Z,102518.03
2018-12-25T23:45:17.785Z,102521.50
2018-12-25T23:48:06.728Z,102522.55
2018-12-25T23:50:55.577Z,102508.13
2018-12-25T23:53:44.419Z,102435.03
2018-12-25T23:56:33.336Z,102505.27
2018-12-25T23:59:22.172Z,102517.72
